CheckWX is a tool to help pilots better visualize weather data.  It is not intended as a substitute for an official pre-flight weather briefing.

00:12:24 UTC

EPKT METAR
Katowice International Airport
Katowice, Poland
Current

42 mins ago

EPKT 162330Z VRB02KT 7000 NSC 05/05 Q1017
Observed
Nov-16 @ 23:30 UTC
Wind
  • Variable at 2 KTS
Visibility
7,000 meters
Flight Rules
MVFR
Cloud Levels
  • Clear skies
Temperature
C / 41°F
Dewpoint
C / 41°F
Humidity
100%
Altimeter
30.03" Hg
Pressure
1016.92 hPa
Previous

1 hour ago

EPKT 162300Z 09004KT 8000 NSC 06/05 Q1017
Observed
Nov-16 @ 23:00 UTC
Wind
  • 090° at 4 KTS
Visibility
8,000 meters
Flight Rules
MVFR
Cloud Levels
  • Clear skies
Temperature
C / 43°F
Dewpoint
C / 41°F
Humidity
93%
Altimeter
30.03" Hg
Pressure
1016.92 hPa
Previous

2 hours ago

EPKT 162230Z 11003KT 8000 NSC 05/05 Q1017
Observed
Nov-16 @ 22:30 UTC
Wind
  • 110° at 3 KTS
Visibility
8,000 meters
Flight Rules
MVFR
Cloud Levels
  • Clear skies
Temperature
C / 41°F
Dewpoint
C / 41°F
Humidity
100%
Altimeter
30.03" Hg
Pressure
1016.92 hPa